Time;durP1;ratioP1;P1;durP2;ratioP2;P2;SDS_P1;SDS_P2;PMS_P1;PMS_P2;Temp;Humidity;BMP_temperature;BMP_pressure;BME280_temperature;BME280_humidity;BME280_pressure;Samples;Min_cycle;Max_cycle;Signal;HPM_P1;HPM_P2
2021/05/04 00:02:18;;;;;;;6.50;4.90;;;;;;;7.12;52.98;98521.22;4990550;28;41283;-78
2021/05/04 00:04:46;;;;;;;7.77;6.53;;;;;;;7.10;54.18;98512.56;4991774;28;39996;-78
2021/05/04 00:07:13;;;;;;;7.17;6.03;;;;;;;7.08;53.68;98517.06;5006467;28;42631;-78
2021/05/04 00:09:40;;;;;;;5.27;4.77;;;;;;;7.15;54.04;98528.97;5009203;28;43097;-77
2021/05/04 00:12:08;;;;;;;6.37;5.77;;;;;;;7.11;54.23;98517.75;4994046;28;42138;-78
2021/05/04 00:14:36;;;;;;;5.83;5.23;;;;;;;7.09;54.41;98510.84;4993792;28;39856;-77
2021/05/04 00:17:03;;;;;;;6.53;5.83;;;;;;;7.11;55.08;98503.72;5010450;28;42172;-78
2021/05/04 00:19:31;;;;;;;9.37;6.60;;;;;;;7.11;54.14;98503.72;5009835;28;43426;-77
2021/05/04 00:21:58;;;;;;;7.53;6.10;;;;;;;7.02;54.40;98491.06;4994675;28;42291;-77
2021/05/04 00:24:26;;;;;;;6.93;6.17;;;;;;;7.09;54.48;98492.44;4993364;28;39817;-78
2021/05/04 00:26:53;;;;;;;6.20;5.60;;;;;;;6.96;55.19;98459.78;5011108;28;41716;-77
2021/05/04 00:29:20;;;;;;;5.80;5.20;;;;;;;7.07;54.69;98478.50;5008910;28;43470;-77
2021/05/04 00:31:48;;;;;;;6.50;5.90;;;;;;;6.94;54.50;98454.63;5009014;28;42833;-78
2021/05/04 00:34:15;;;;;;;7.27;6.33;;;;;;;7.12;54.70;98481.75;5010178;28;39895;-78
2021/05/04 00:36:42;;;;;;;6.63;5.93;;;;;;;7.04;55.26;98457.63;5009668;28;41388;-79
2021/05/04 00:39:09;;;;;;;6.60;6.00;;;;;;;7.09;55.00;98464.31;4993895;28;41682;-77
2021/05/04 00:41:36;;;;;;;7.03;6.07;;;;;;;7.09;55.00;98468.72;5008783;28;42976;-78
2021/05/04 00:44:04;;;;;;;6.17;5.57;;;;;;;7.15;55.12;98458.72;5009961;28;40077;-78
2021/05/04 00:46:31;;;;;;;6.63;5.93;;;;;;;7.18;55.08;98470.84;5008074;28;42367;-77
2021/05/04 00:48:59;;;;;;;6.17;5.57;;;;;;;7.20;54.84;98458.47;5009473;28;42699;-78
2021/05/04 00:51:26;;;;;;;6.13;5.43;;;;;;;7.21;54.70;98449.63;5008512;28;42124;-77
2021/05/04 00:53:53;;;;;;;5.93;5.33;;;;;;;7.22;54.94;98453.97;5010242;28;39556;-78
2021/05/04 00:56:23;;;;;;;6.93;6.03;;;;;;;7.13;55.19;98434.25;5009168;28;40744;-78
2021/05/04 00:58:52;;;;;;;7.43;6.03;;;;;;;7.15;55.05;98447.34;4993346;28;42776;-77
2021/05/04 01:01:19;;;;;;;5.20;4.70;;;;;;;7.10;55.19;98438.84;5001180;28;42729;-77
2021/05/04 01:03:47;;;;;;;6.40;5.77;;;;;;;7.06;55.34;98432.88;5008017;28;39619;-77
2021/05/04 01:06:15;;;;;;;7.07;6.37;;;;;;;6.95;55.15;98408.94;5007910;28;41997;-77
2021/05/04 01:08:42;;;;;;;6.70;5.80;;;;;;;6.99;55.53;98412.25;4992509;28;42658;-78
2021/05/04 01:11:10;;;;;;;5.70;5.20;;;;;;;7.00;55.26;98411.31;4992280;28;41304;-77
2021/05/04 01:13:37;;;;;;;5.47;4.37;;;;;;;6.99;55.21;98415.75;4992541;28;38794;-77
2021/05/04 01:16:05;;;;;;;6.23;5.50;;;;;;;6.95;55.02;98418.63;5008934;28;41785;-76
2021/05/04 01:18:32;;;;;;;5.70;5.17;;;;;;;6.90;55.24;98410.13;5004223;28;42585;-78
2021/05/04 01:21:00;;;;;;;6.33;5.77;;;;;;;6.88;55.44;98401.47;4982648;28;41053;-77
2021/05/04 01:23:27;;;;;;;5.67;5.17;;;;;;;6.85;55.33;98392.81;5009398;28;39602;-79
2021/05/04 01:25:54;;;;;;;5.80;5.20;;;;;;;6.85;55.74;98392.81;4992080;28;40972;-77
2021/05/04 01:28:22;;;;;;;6.00;5.40;;;;;;;6.78;55.28;98372.19;5008383;28;42794;-78
2021/05/04 01:30:49;;;;;;;6.23;5.07;;;;;;;6.82;55.31;98385.06;5004997;28;42192;-77
2021/05/04 01:33:16;;;;;;;5.53;4.90;;;;;;;6.81;55.55;98372.00;4996638;28;40615;-78
2021/05/04 01:35:43;;;;;;;5.37;4.97;;;;;;;6.75;55.84;98354.78;5003386;28;41850;-77
2021/05/04 01:38:12;;;;;;;5.77;5.17;;;;;;;6.79;55.95;98358.94;4989144;28;42397;-78
2021/05/04 01:40:39;;;;;;;7.07;5.67;;;;;;;6.82;56.04;98350.84;4978717;28;41354;-77
2021/05/04 01:43:06;;;;;;;5.80;5.10;;;;;;;6.82;56.77;98347.38;5009123;28;40038;-77
2021/05/04 01:45:34;;;;;;;6.47;5.87;;;;;;;6.84;56.24;98343.72;5009782;28;41497;-78
2021/05/04 01:48:01;;;;;;;5.90;5.40;;;;;;;6.91;56.81;98339.00;4992032;28;42803;-77
2021/05/04 01:50:28;;;;;;;6.37;5.67;;;;;;;6.95;57.18;98331.75;5000147;28;42195;-78
2021/05/04 01:52:55;;;;;;;8.23;5.87;;;;;;;6.95;56.74;98326.47;4989350;28;40021;-78
2021/05/04 01:55:23;;;;;;;6.30;5.10;;;;;;;7.03;56.69;98332.19;4991955;28;41731;-77
2021/05/04 01:57:50;;;;;;;5.67;5.07;;;;;;;7.03;56.95;98332.19;4967646;28;43047;-79
2021/05/04 02:00:18;;;;;;;5.33;4.87;;;;;;;7.02;56.49;98335.75;4986639;28;41160;-78
2021/05/04 02:02:45;;;;;;;5.47;4.97;;;;;;;7.03;56.79;98329.56;4993007;28;39935;-77
2021/05/04 02:05:13;;;;;;;7.33;5.43;;;;;;;6.97;56.54;98320.19;5006939;28;41705;-79
2021/05/04 02:07:41;;;;;;;5.37;4.87;;;;;;;6.97;56.54;98327.25;5006180;28;43535;-77
2021/05/04 02:10:11;;;;;;;5.90;5.40;;;;;;;6.93;56.59;98330.97;5003919;28;41061;-78
2021/05/04 02:12:40;;;;;;;5.60;5.10;;;;;;;6.90;57.04;98316.22;4987719;28;40526;-78
2021/05/04 02:15:09;;;;;;;5.50;5.00;;;;;;;6.89;56.76;98324.22;4987775;28;42096;-78
2021/05/04 02:17:36;;;;;;;6.53;5.87;;;;;;;6.86;57.49;98309.44;4970303;28;41875;-77
2021/05/04 02:20:04;;;;;;;5.73;5.23;;;;;;;6.85;57.31;98305.94;4999766;28;42175;-78
2021/05/04 02:22:33;;;;;;;5.77;4.80;;;;;;;6.84;57.17;98306.88;5001881;28;41512;-78
2021/05/04 02:25:01;;;;;;;5.17;4.67;;;;;;;6.86;56.85;98301.53;5006953;28;41577;-76
2021/05/04 02:27:28;;;;;;;7.17;5.37;;;;;;;6.85;57.17;98292.78;5005757;28;42463;-77
2021/05/04 02:29:57;;;;;;;6.30;5.13;;;;;;;6.69;57.15;98260.38;5007275;28;42967;-78
2021/05/04 02:32:24;;;;;;;6.20;5.60;;;;;;;6.90;57.18;98273.28;5002235;28;39917;-78
2021/05/04 02:34:51;;;;;;;5.13;4.63;;;;;;;6.91;57.43;98267.06;4998819;28;42182;-78
2021/05/04 02:37:18;;;;;;;5.07;4.67;;;;;;;6.94;57.06;98265.09;4970258;28;42520;-79
2021/05/04 02:39:45;;;;;;;5.93;5.43;;;;;;;6.97;57.07;98253.53;4979810;28;42995;-77
2021/05/04 02:42:12;;;;;;;5.57;4.97;;;;;;;6.86;57.24;98235.75;4986403;28;39828;-78
2021/05/04 02:44:39;;;;;;;5.50;5.00;;;;;;;7.00;57.50;98242.84;4985553;28;41400;-77
2021/05/04 02:47:07;;;;;;;5.77;5.27;;;;;;;7.01;57.08;98239.28;4988168;28;42739;-78
2021/05/04 02:49:35;;;;;;;6.13;5.53;;;;;;;7.04;57.50;98233.84;4989752;28;42239;-77
2021/05/04 02:52:03;;;;;;;6.70;6.10;;;;;;;7.07;57.55;98233.66;4995713;28;40732;-77
2021/05/04 02:54:30;;;;;;;6.23;5.63;;;;;;;7.10;57.27;98233.47;5007057;28;40619;-77
2021/05/04 02:56:57;;;;;;;6.53;5.90;;;;;;;7.15;57.26;98231.44;4991301;28;41682;-79
2021/05/04 02:59:24;;;;;;;5.93;5.03;;;;;;;7.18;56.82;98239.97;5008007;28;41903;-77
2021/05/04 03:01:51;;;;;;;6.10;5.27;;;;;;;7.19;57.34;98223.25;5007727;28;40125;-78
2021/05/04 03:04:19;;;;;;;6.33;5.70;;;;;;;7.08;57.18;98214.28;5007870;28;41004;-78
2021/05/04 03:06:46;;;;;;;6.40;5.80;;;;;;;7.17;57.17;98219.03;5008793;28;42704;-78
2021/05/04 03:09:13;;;;;;;5.17;4.67;;;;;;;7.26;56.99;98229.00;5007336;28;42193;-78
2021/05/04 03:11:40;;;;;;;4.77;4.37;;;;;;;7.25;56.82;98215.94;5009226;28;41731;-78
2021/05/04 03:14:07;;;;;;;5.00;4.60;;;;;;;7.22;57.01;98209.06;5006988;28;42295;-78
2021/05/04 03:16:34;;;;;;;5.90;5.40;;;;;;;7.30;57.05;98214.69;4990911;28;41659;-78
2021/05/04 03:19:02;;;;;;;5.40;4.47;;;;;;;7.34;57.07;98208.31;5008499;28;42998;-77
2021/05/04 03:21:30;;;;;;;6.13;5.13;;;;;;;7.38;57.22;98199.31;5009049;28;40482;-78
2021/05/04 03:23:57;;;;;;;5.63;5.13;;;;;;;7.42;57.17;98195.53;5006743;28;42628;-79
2021/05/04 03:26:24;;;;;;;5.57;5.07;;;;;;;7.43;57.06;98189.31;5007846;28;43426;-77
2021/05/04 03:28:51;;;;;;;5.73;4.73;;;;;;;7.49;57.09;98183.69;5007623;28;42183;-76
2021/05/04 03:31:18;;;;;;;5.20;4.70;;;;;;;7.41;56.99;98164.03;5007616;28;39944;-77
2021/05/04 03:33:46;;;;;;;5.50;5.00;;;;;;;7.55;56.87;98178.03;5008483;28;41588;-78
2021/05/04 03:36:14;;;;;;;6.47;5.50;;;;;;;7.57;56.69;98176.16;5006919;28;42210;-77
2021/05/04 03:38:42;;;;;;;5.43;4.93;;;;;;;7.61;56.84;98163.66;5006250;28;41695;-77
2021/05/04 03:41:10;;;;;;;5.27;4.77;;;;;;;7.65;56.60;98162.53;5008823;28;39893;-77
2021/05/04 03:43:37;;;;;;;5.07;4.57;;;;;;;7.67;57.73;98151.88;5006498;28;42363;-77
2021/05/04 03:46:04;;;;;;;5.20;4.70;;;;;;;7.71;57.22;98150.75;5008685;28;42679;-76
2021/05/04 03:48:31;;;;;;;5.70;4.97;;;;;;;7.77;56.87;98145.13;4991430;28;41073;-79
2021/05/04 03:50:58;;;;;;;5.73;4.70;;;;;;;7.82;56.96;98137.75;5010170;28;39926;-78
2021/05/04 03:53:26;;;;;;;5.57;4.60;;;;;;;7.72;56.88;98110.28;4993727;28;41659;-77
2021/05/04 03:55:54;;;;;;;5.93;4.53;;;;;;;7.83;56.72;98107.81;5011418;28;43110;-77
2021/05/04 03:58:21;;;;;;;5.30;4.53;;;;;;;7.95;56.40;98117.59;4994023;28;41210;-77
2021/05/04 04:00:48;;;;;;;4.87;4.37;;;;;;;8.04;56.46;98117.00;4994532;28;40636;-75
2021/05/04 04:03:18;;;;;;;6.53;5.07;;;;;;;8.10;56.19;98116.59;5009801;28;42321;-77
2021/05/04 04:05:45;;;;;;;6.37;4.93;;;;;;;8.16;56.36;98110.91;5010491;28;42756;-77
2021/05/04 04:08:12;;;;;;;4.33;4.03;;;;;;;8.23;56.09;98093.78;4993507;28;41201;-76
2021/05/04 04:10:41;;;;;;;4.97;4.53;;;;;;;8.30;56.18;98095.06;5011379;28;40747;-78
2021/05/04 04:13:09;;;;;;;4.30;3.97;;;;;;;8.36;56.35;98093.00;5011661;28;41471;-78
2021/05/04 04:15:36;;;;;;;4.50;4.10;;;;;;;8.39;56.14;98085.75;4993309;28;42067;-77
2021/05/04 04:18:03;;;;;;;6.07;5.13;;;;;;;8.45;56.50;98076.56;5012216;28;43036;-76
2021/05/04 04:20:30;;;;;;;5.40;4.90;;;;;;;8.50;56.34;98077.13;5010880;28;40636;-77
2021/05/04 04:22:58;;;;;;;6.10;4.87;;;;;;;8.51;56.39;98066.47;5010794;28;42474;-76
2021/05/04 04:25:25;;;;;;;5.13;4.63;;;;;;;8.59;56.06;98066.78;5010045;28;42880;-77
2021/05/04 04:27:52;;;;;;;5.10;4.40;;;;;;;8.57;56.12;98041.44;5003455;28;41264;-77
2021/05/04 04:30:24;;;;;;;5.23;3.80;;;;;;;8.73;55.95;98060.56;4990398;28;39858;-77
2021/05/04 04:32:51;;;;;;;4.70;4.30;;;;;;;8.78;55.53;98057.63;4974058;28;41600;-78
2021/05/04 04:35:19;;;;;;;4.70;4.30;;;;;;;8.85;55.28;98050.97;4989913;28;42389;-78
2021/05/04 04:37:46;;;;;;;4.40;4.00;;;;;;;8.93;55.21;98051.28;4973565;28;41330;-76
2021/05/04 04:40:14;;;;;;;4.80;3.97;;;;;;;8.97;54.88;98050.97;4982081;28;39239;-77
2021/05/04 04:42:41;;;;;;;5.23;4.47;;;;;;;8.99;54.49;98043.81;5010794;28;42651;-77
2021/05/04 04:45:09;;;;;;;4.40;4.00;;;;;;;9.10;54.99;98040.41;5010030;28;41780;-77
2021/05/04 04:47:37;;;;;;;4.30;3.87;;;;;;;9.22;54.37;98049.28;5009057;28;42928;-77
2021/05/04 04:50:06;;;;;;;4.23;3.83;;;;;;;9.23;54.28;98014.00;5009343;28;41632;-77
2021/05/04 04:52:33;;;;;;;4.83;4.07;;;;;;;9.43;53.76;98034.56;5009482;28;41381;-78
2021/05/04 04:55:00;;;;;;;4.20;3.80;;;;;;;9.54;53.48;98034.63;5010554;28;42537;-79
2021/05/04 04:57:27;;;;;;;3.50;3.10;;;;;;;9.66;53.02;98039.03;5009619;28;41843;-78
2021/05/04 04:59:54;;;;;;;4.10;3.73;;;;;;;9.78;53.11;98025.88;5008686;28;40394;-77
2021/05/04 05:02:21;;;;;;;4.07;3.67;;;;;;;9.86;52.80;98028.84;5010260;28;41754;-77
2021/05/04 05:04:49;;;;;;;4.07;3.77;;;;;;;9.89;52.27;98023.34;4993545;28;42982;-77
2021/05/04 05:07:17;;;;;;;4.50;3.70;;;;;;;10.02;52.22;98026.75;5009340;28;43013;-75
2021/05/04 05:09:45;;;;;;;4.90;3.50;;;;;;;10.10;51.70;98032.34;5009800;28;40687;-77
2021/05/04 05:12:13;;;;;;;4.47;3.30;;;;;;;10.22;51.48;98026.16;4992875;28;40721;-75
2021/05/04 05:14:41;;;;;;;3.77;3.30;;;;;;;10.34;51.11;98022.59;5009088;28;44022;-78
2021/05/04 05:17:11;;;;;;;3.57;3.20;;;;;;;10.40;51.18;98013.34;5009457;28;42138;-75
2021/05/04 05:19:38;;;;;;;4.07;3.63;;;;;;;10.50;50.63;98021.47;5009078;28;39728;-76
2021/05/04 05:22:06;;;;;;;3.40;3.10;;;;;;;10.59;50.66;97996.94;4991867;28;42727;-78
2021/05/04 05:24:34;;;;;;;4.17;3.50;;;;;;;10.67;50.66;97998.03;5001151;28;42905;-75
2021/05/04 05:27:02;;;;;;;4.80;3.30;;;;;;;10.82;49.87;98011.91;4990576;28;42254;-77
2021/05/04 05:29:30;;;;;;;3.63;3.27;;;;;;;10.88;49.99;98002.66;5003030;28;39708;-76
2021/05/04 05:31:57;;;;;;;3.10;2.80;;;;;;;10.97;49.65;98008.06;5006620;28;41395;-74
2021/05/04 05:34:24;;;;;;;3.40;3.10;;;;;;;11.02;49.00;98003.25;5008787;28;41849;-76
2021/05/04 05:36:51;;;;;;;3.57;3.27;;;;;;;11.15;49.05;97998.66;5002583;28;41387;-75
2021/05/04 05:39:20;;;;;;;3.40;3.10;;;;;;;11.18;48.83;97978.19;5007172;28;40863;-77
2021/05/04 05:41:47;;;;;;;4.30;3.07;;;;;;;11.34;48.49;97990.13;4998001;28;41447;-76
2021/05/04 05:44:14;;;;;;;5.80;3.00;;;;;;;11.48;48.17;97996.97;4990624;28;42467;-78
2021/05/04 05:46:42;;;;;;;4.80;2.80;;;;;;;11.56;47.69;98005.16;4993680;28;42632;-77
2021/05/04 05:49:10;;;;;;;3.33;2.60;;;;;;;11.65;47.48;97988.50;5010725;28;39488;-78
2021/05/04 05:51:37;;;;;;;3.70;3.40;;;;;;;11.79;47.02;97990.91;5007636;28;41370;-75
2021/05/04 05:54:05;;;;;;;2.80;2.50;;;;;;;11.87;47.06;97983.16;4991777;28;41901;-75
2021/05/04 05:56:34;;;;;;;3.07;2.43;;;;;;;12.03;46.95;97988.06;4991769;28;40992;-76
2021/05/04 05:59:02;;;;;;;2.97;2.50;;;;;;;12.07;47.04;97967.44;5007946;28;40002;-75
2021/05/04 06:01:29;;;;;;;2.70;2.50;;;;;;;12.21;46.48;97983.91;4991983;28;40791;-75
2021/05/04 06:03:56;;;;;;;5.57;2.87;;;;;;;12.31;46.02;97986.63;4997346;28;42516;-76
2021/05/04 06:06:23;;;;;;;8.17;6.03;;;;;;;12.38;45.85;97977.16;4972378;28;41037;-76
2021/05/04 06:08:50;;;;;;;6.37;4.07;;;;;;;12.50;45.45;97992.06;4972858;28;39466;-76
2021/05/04 06:11:17;;;;;;;6.50;2.77;;;;;;;12.61;45.10;97993.00;4996409;28;41460;-72
2021/05/04 06:13:46;;;;;;;3.67;2.53;;;;;;;12.80;45.09;97998.44;4989263;28;42525;-72
2021/05/04 06:16:13;;;;;;;3.27;2.27;;;;;;;12.94;44.74;97992.78;4991063;28;42360;-73
2021/05/04 06:18:40;;;;;;;2.93;2.63;;;;;;;13.14;43.87;97993.72;4991324;28;39847;-73
2021/05/04 06:21:07;;;;;;;2.93;2.23;;;;;;;13.26;43.87;97996.19;4985086;28;40889;-73
2021/05/04 06:23:34;;;;;;;5.03;2.33;;;;;;;13.36;43.79;97982.06;5008489;28;42692;-74
2021/05/04 06:26:01;;;;;;;2.80;2.10;;;;;;;13.31;43.40;97977.19;5007859;28;42215;-73
2021/05/04 06:28:28;;;;;;;3.93;2.17;;;;;;;13.50;43.13;97995.84;5006690;28;41541;-72
2021/05/04 06:30:56;;;;;;;2.47;2.27;;;;;;;13.61;42.53;98005.53;5006830;28;40549;-73
2021/05/04 06:33:23;;;;;;;3.70;2.40;;;;;;;13.76;42.81;97992.69;4990700;28;42145;-75
2021/05/04 06:35:51;;;;;;;2.27;2.07;;;;;;;13.96;41.77;98005.09;5001822;28;42693;-74
2021/05/04 06:38:18;;;;;;;3.00;2.00;;;;;;;14.01;41.14;98011.66;4986849;28;40736;-73
2021/05/04 06:40:48;;;;;;;5.17;2.20;;;;;;;14.10;40.80;98011.81;4987298;28;41843;-74
2021/05/04 06:43:16;;;;;;;3.00;2.30;;;;;;;14.18;41.50;98010.16;5000673;28;42986;-72
2021/05/04 06:45:43;;;;;;;2.27;1.90;;;;;;;14.27;40.86;98008.47;5007993;28;43008;-73
2021/05/04 06:48:11;;;;;;;2.47;1.97;;;;;;;14.41;41.05;98001.91;4987574;28;40016;-74
2021/05/04 06:50:38;;;;;;;3.67;2.10;;;;;;;14.61;41.14;98023.06;4971085;28;41078;-74
2021/05/04 06:53:06;;;;;;;2.10;1.90;;;;;;;14.74;40.92;98012.97;5006974;28;42273;-74
2021/05/04 06:55:33;;;;;;;3.13;2.00;;;;;;;14.84;40.13;98033.41;4992107;28;42715;-75
2021/05/04 06:58:01;;;;;;;2.10;1.90;;;;;;;14.86;39.54;98002.13;4987717;28;40388;-74
2021/05/04 07:00:28;;;;;;;2.47;2.03;;;;;;;15.05;39.77;98023.44;4987755;28;42583;-72
2021/05/04 07:02:55;;;;;;;3.27;1.73;;;;;;;15.11;39.53;98028.19;5006747;28;42634;-73
2021/05/04 07:05:23;;;;;;;2.47;1.90;;;;;;;15.16;38.83;98012.59;5005924;28;42620;-71
2021/05/04 07:07:50;;;;;;;2.00;1.80;;;;;;;15.27;38.57;98020.41;5006154;28;40509;-72
2021/05/04 07:10:17;;;;;;;2.70;1.80;;;;;;;15.38;38.41;98022.91;4994544;28;41749;-72
2021/05/04 07:12:44;;;;;;;1.83;1.67;;;;;;;15.43;38.51;98017.13;4996232;28;42773;-73
2021/05/04 07:15:12;;;;;;;1.93;1.57;;;;;;;15.54;38.61;98016.94;4996200;28;42223;-73
2021/05/04 07:17:59;;;;;;;1.63;1.53;;;;;;;15.63;37.91;98005.41;4992389;28;41403;-80
2021/05/04 07:20:30;;;;;;;1.70;1.60;;;;;;;15.57;37.74;97999.84;4985644;28;43687;-72
2021/05/04 07:22:58;;;;;;;3.70;1.90;;;;;;;15.57;37.58;98010.50;5005531;28;43241;-75
2021/05/04 07:25:26;;;;;;;2.70;1.80;;;;;;;15.49;37.74;98007.69;5000387;28;41468;-72
2021/05/04 07:27:54;;;;;;;3.00;1.80;;;;;;;15.58;37.75;98004.19;4998747;28;39702;-71
2021/05/04 07:30:22;;;;;;;2.10;1.60;;;;;;;15.55;38.00;97956.44;4990678;28;42299;-71
2021/05/04 07:32:49;;;;;;;2.80;1.70;;;;;;;15.68;37.14;97956.94;4990187;28;41126;-72
2021/05/04 07:35:16;;;;;;;2.83;1.80;;;;;;;15.71;37.01;97943.25;4991188;28;43064;-72
2021/05/04 07:37:44;;;;;;;2.30;1.50;;;;;;;15.70;37.29;97962.97;4990418;28;40610;-73
2021/05/04 07:40:12;;;;;;;2.10;1.80;;;;;;;15.67;36.60;97963.25;5009204;28;42481;-71
2021/05/04 07:42:39;;;;;;;2.00;1.80;;;;;;;15.71;36.76;97948.59;5012979;28;42597;-72
2021/05/04 07:45:08;;;;;;;1.80;1.70;;;;;;;15.64;36.89;97932.34;5012208;28;42451;-72
2021/05/04 07:47:36;;;;;;;2.83;2.00;;;;;;;15.54;37.42;97941.38;4997576;28;40354;-73
2021/05/04 07:50:04;;;;;;;2.93;1.60;;;;;;;15.56;37.51;97928.78;4990727;28;42069;-72
2021/05/04 07:52:31;;;;;;;4.80;1.77;;;;;;;15.57;36.59;97941.13;5003145;28;43316;-73
2021/05/04 07:54:59;;;;;;;3.47;1.67;;;;;;;15.75;37.28;97940.16;5009489;28;42141;-73
2021/05/04 07:57:27;;;;;;;3.20;1.80;;;;;;;15.79;37.02;97956.72;4989080;28;40089;-73
2021/05/04 07:59:58;;;;;;;1.60;1.50;;;;;;;15.79;37.19;97940.69;4991911;28;42662;-76
2021/05/04 08:02:28;;;;;;;4.03;1.80;;;;;;;15.70;36.79;97920.25;4994286;28;44373;-71
2021/05/04 08:04:55;;;;;;;4.00;1.73;;;;;;;15.86;36.63;97939.09;4991446;28;42507;-74
2021/05/04 08:07:22;;;;;;;3.50;1.90;;;;;;;15.92;36.33;97951.00;4985872;28;39929;-76
2021/05/04 08:09:49;;;;;;;2.90;1.60;;;;;;;15.89;36.94;97936.13;5010572;28;41423;-77
2021/05/04 08:12:17;;;;;;;3.23;1.70;;;;;;;15.93;36.56;97956.22;4993081;28;43439;-74
2021/05/04 08:14:45;;;;;;;2.47;2.23;;;;;;;16.00;36.38;97959.09;4990237;28;41301;-73
2021/05/04 08:17:15;;;;;;;2.93;2.63;;;;;;;16.00;36.53;97954.59;4980874;28;39997;-74
2021/05/04 08:19:43;;;;;;;3.13;2.00;;;;;;;16.12;35.97;97937.34;4972467;28;41042;-72
2021/05/04 08:22:10;;;;;;;2.40;1.97;;;;;;;16.19;36.25;97953.63;4989622;28;43477;-73
2021/05/04 08:24:38;;;;;;;4.97;2.00;;;;;;;16.31;35.99;97962.25;4989373;28;42815;-74
2021/05/04 08:27:06;;;;;;;5.73;1.90;;;;;;;16.48;36.02;97953.34;5002290;28;41625;-74
2021/05/04 08:29:34;;;;;;;2.30;1.70;;;;;;;16.74;35.48;97959.59;5010450;28;41720;-74
2021/05/04 08:32:02;;;;;;;3.03;2.00;;;;;;;17.04;35.11;97954.78;4997864;28;43026;-75
2021/05/04 08:34:30;;;;;;;6.73;2.13;;;;;;;17.27;34.69;97961.25;4972203;28;42534;-72
2021/05/04 08:37:00;;;;;;;4.03;1.90;;;;;;;17.46;34.51;97923.53;4990211;28;40625;-75
2021/05/04 08:39:27;;;;;;;5.67;2.20;;;;;;;17.59;34.47;97945.34;4973928;28;41970;-74
2021/05/04 08:41:57;;;;;;;2.50;1.80;;;;;;;17.80;33.72;97955.63;4992524;28;42074;-75
2021/05/04 08:44:28;;;;;;;3.27;1.77;;;;;;;18.00;33.95;97963.41;5009900;28;42119;-74
2021/05/04 08:47:04;;;;;;;3.70;1.80;;;;;;;18.07;32.69;97965.25;5008053;28;38864;-73
2021/05/04 08:49:32;;;;;;;4.53;1.90;;;;;;;18.11;33.09;97950.53;5007683;28;41775;-72
2021/05/04 08:52:00;;;;;;;3.53;1.90;;;;;;;18.07;32.15;97964.41;5009008;28;41792;-75
2021/05/04 08:54:27;;;;;;;6.60;1.87;;;;;;;18.26;32.66;97969.47;5009170;28;42109;-76
2021/05/04 08:56:54;;;;;;;4.50;1.47;;;;;;;18.40;32.39;97959.94;5009019;28;39395;-76
2021/05/04 08:59:24;;;;;;;2.50;1.60;;;;;;;18.57;31.17;97956.22;5008285;28;41760;-73
2021/05/04 09:01:51;;;;;;;5.73;1.90;;;;;;;18.99;30.36;97975.69;5005001;28;42536;-73
2021/05/04 09:04:32;;;;;;;2.07;1.40;;;;;;;19.25;30.30;97972.78;4989926;28;40920;-73
2021/05/04 09:07:17;;;;;;;9.20;2.80;;;;;;;19.20;28.79;97972.44;5008911;28;39211;-72
2021/05/04 09:10:09;;;;;;;4.47;1.70;;;;;;;19.29;28.94;97973.25;5010724;28;42164;-80
2021/05/04 09:12:40;;;;;;;7.33;2.07;;;;;;;19.36;29.66;97979.63;5009089;28;42640;-74
2021/05/04 09:15:40;;;;;;;5.40;1.90;;;;;;;19.52;28.19;97973.41;4991085;28;42970;-73
2021/05/04 09:18:40;;;;;;;3.90;1.63;;;;;;;19.72;28.52;97939.72;4972635;28;39035;-74
2021/05/04 09:21:09;;;;;;;4.73;1.80;;;;;;;19.73;28.50;97939.56;4999077;28;41359;-74
2021/05/04 09:23:45;;;;;;;3.53;2.00;;;;;;;19.75;28.25;97957.34;5007720;28;42681;-74
2021/05/04 09:26:17;;;;;;;4.60;1.40;;;;;;;19.72;28.28;97963.91;5007041;28;41339;-74
2021/05/04 09:28:48;;;;;;;4.03;2.00;;;;;;;19.68;28.70;97957.19;4992028;28;38957;-73
2021/05/04 09:31:21;;;;;;;6.70;1.67;;;;;;;19.89;27.96;97959.28;5004060;28;42406;-73
2021/05/04 09:33:49;;;;;;;2.20;1.80;;;;;;;20.00;28.03;97945.47;4988979;28;42919;-75
2021/05/04 09:36:45;;;;;;;4.97;1.60;;;;;;;20.89;27.96;97952.84;4992152;28;41371;-73
2021/05/04 09:39:24;;;;;;;4.70;1.90;;;;;;;21.36;26.97;97967.88;5008436;28;40045;-73
2021/05/04 09:41:55;;;;;;;6.27;1.57;;;;;;;21.63;27.33;97950.22;5008893;28;41689;-72
2021/05/04 09:44:38;;;;;;;4.20;1.60;;;;;;;21.65;27.07;97956.22;4991573;28;42909;-72
2021/05/04 09:47:06;;;;;;;4.20;1.40;;;;;;;21.65;27.03;97972.41;4990673;28;42936;-72
2021/05/04 09:49:35;;;;;;;4.80;1.77;;;;;;;21.05;27.51;97970.69;4988127;28;42408;-73
2021/05/04 09:52:19;;;;;;;9.10;1.73;;;;;;;20.36;29.15;97968.09;4994206;28;41788;-74
2021/05/04 09:54:46;;;;;;;4.77;1.60;;;;;;;19.71;30.76;97967.59;4995989;28;41522;-72
2021/05/04 09:57:32;;;;;;;8.90;1.93;;;;;;;19.15;31.12;97950.66;5008968;28;42277;-73
2021/05/04 10:00:00;;;;;;;3.43;1.37;;;;;;;18.74;31.91;97968.69;5009443;28;39584;-77
2021/05/04 10:02:28;;;;;;;5.67;1.50;;;;;;;18.37;32.86;97950.38;4990704;28;42380;-76
2021/05/04 10:04:55;;;;;;;13.83;8.07;;;;;;;18.22;33.76;97944.00;4991331;28;41850;-74
2021/05/04 10:07:23;;;;;;;4.57;1.20;;;;;;;17.91;34.20;97941.13;5007303;28;41948;-75
2021/05/04 10:09:51;;;;;;;6.90;1.17;;;;;;;17.66;35.68;97918.78;4989988;28;39654;-76
2021/05/04 10:12:20;;;;;;;4.67;1.13;;;;;;;17.33;36.48;97924.97;4988252;28;41731;-77
2021/05/04 10:14:49;;;;;;;3.90;1.27;;;;;;;16.98;37.86;97929.50;5004699;28;42737;-76
2021/05/04 10:17:17;;;;;;;4.40;1.30;;;;;;;16.78;38.72;97918.19;5007354;28;41988;-75
2021/05/04 10:19:44;;;;;;;3.80;1.37;;;;;;;16.49;40.51;97909.59;4991823;28;39101;-76
2021/05/04 10:22:13;;;;;;;5.00;1.60;;;;;;;16.15;42.83;97888.97;5008688;28;42231;-76
2021/05/04 10:24:42;;;;;;;3.07;1.50;;;;;;;16.02;42.10;97917.06;5007617;28;43796;-76
2021/05/04 10:27:11;;;;;;;2.33;1.43;;;;;;;15.92;42.81;97913.63;4996839;28;20229;-76
2021/05/04 10:29:42;;;;;;;4.97;1.60;;;;;;;15.66;42.59;97889.50;4991914;28;39652;-75
2021/05/04 10:32:13;;;;;;;7.17;1.73;;;;;;;15.76;42.82;97900.94;4987536;28;41231;-75
2021/05/04 10:34:41;;;;;;;5.03;1.57;;;;;;;15.81;42.06;97909.34;4983633;28;43843;-76
2021/05/04 10:37:35;;;;;;;5.33;2.03;;;;;;;16.06;42.64;97905.94;4988429;28;42234;-75
2021/05/04 10:40:21;;;;;;;8.30;2.20;;;;;;;16.21;41.11;97924.91;5019491;28;40613;-73
2021/05/04 10:42:48;;;;;;;5.63;1.97;;;;;;;16.55;40.94;97906.31;4987920;28;40751;-74
2021/05/04 10:45:17;;;;;;;6.27;1.87;;;;;;;17.00;38.88;97954.25;4991403;28;42388;-72
2021/05/04 10:47:49;;;;;;;4.60;1.40;;;;;;;17.08;39.17;97942.75;4990705;28;41286;-74
2021/05/04 10:50:22;;;;;;;6.97;1.60;;;;;;;17.31;38.92;97965.28;4998530;28;40588;-73
2021/05/04 10:53:00;;;;;;;3.50;1.10;;;;;;;17.19;39.18;97970.06;5004978;28;41499;-74
2021/05/04 10:56:00;;;;;;;7.93;1.60;;;;;;;16.85;41.26;97954.00;4992132;28;42668;-74
2021/05/04 10:58:30;;;;;;;4.00;1.90;;;;;;;16.37;43.39;97933.06;5005085;28;42912;-73
2021/05/04 11:01:01;;;;;;;2.53;1.27;;;;;;;15.89;44.54;97928.13;4990032;28;40075;-74
2021/05/04 11:03:51;;;;;;;1.90;1.00;;;;;;;15.50;46.43;97900.81;5005807;28;42630;-74
2021/05/04 11:06:49;;;;;;;2.03;1.37;;;;;;;15.39;46.72;97923.19;5003173;28;43494;-74
2021/05/04 11:09:17;;;;;;;1.83;1.40;;;;;;;15.41;45.75;97921.22;5001385;28;42936;-73
2021/05/04 11:11:47;;;;;;;2.87;1.67;;;;;;;15.62;45.06;97926.31;4993774;28;38793;-73
2021/05/04 11:14:26;;;;;;;3.13;1.30;;;;;;;15.82;43.68;97946.56;4987626;28;41590;-72
2021/05/04 11:17:13;;;;;;;2.73;1.23;;;;;;;16.00;42.74;97965.28;4987245;28;43483;-72
2021/05/04 11:19:43;;;;;;;3.70;1.30;;;;;;;15.98;41.86;97964.59;4973494;28;41229;-73
2021/05/04 11:22:15;;;;;;;4.13;1.10;;;;;;;16.34;41.00;97932.50;4996203;28;40565;-76
2021/05/04 11:24:48;;;;;;;4.10;1.20;;;;;;;16.62;40.71;97958.16;5005121;28;41842;-75
2021/05/04 11:27:20;;;;;;;2.40;1.37;;;;;;;16.88;39.86;97959.03;4997348;28;43108;-74
2021/05/04 11:29:50;;;;;;;3.43;1.10;;;;;;;17.05;39.36;97951.97;4983182;28;42267;-77
2021/05/04 11:32:20;;;;;;;1.90;1.17;;;;;;;17.08;39.28;97969.50;5006467;28;41559;-73
2021/05/04 11:34:54;;;;;;;2.30;1.10;;;;;;;17.03;39.31;97980.69;4998921;28;41002;-75
2021/05/04 11:37:40;;;;;;;2.33;1.20;;;;;;;16.79;39.98;97957.31;4996231;28;42944;-72
2021/05/04 11:40:14;;;;;;;1.37;1.03;;;;;;;16.79;40.19;97961.81;5004971;28;42802;-74
2021/05/04 11:42:43;;;;;;;2.47;1.10;;;;;;;16.85;39.79;97982.56;4997960;28;40513;-74
2021/05/04 11:45:14;;;;;;;1.23;0.90;;;;;;;16.85;39.16;97972.72;5000405;28;41652;-74
2021/05/04 11:47:43;;;;;;;2.30;1.27;;;;;;;16.81;39.57;97973.19;4993634;28;43741;-74